Time;durP1;ratioP1;P1;durP2;ratioP2;P2;SDS_P1;SDS_P2;PMS_P1;PMS_P2;Temp;Humidity;BMP_temperature;BMP_pressure;BME280_temperature;BME280_humidity;BME280_pressure;Samples;Min_cycle;Max_cycle;Signal;HPM_P1;HPM_P2
2023/04/23 00:00:48;;;;;;;6.37;5.93;;;14.30;99.90;;;;;;5085614;28;20180;-66
2023/04/23 00:03:14;;;;;;;5.40;3.40;;;14.30;99.90;;;;;;5085684;28;20653;-66
2023/04/23 00:05:41;;;;;;;3.70;3.30;;;14.20;99.90;;;;;;5085219;28;20427;-66
2023/04/23 00:08:07;;;;;;;3.53;3.20;;;14.20;99.90;;;;;;5082118;28;20507;-67
2023/04/23 00:10:32;;;;;;;4.00;3.10;;;14.20;99.90;;;;;;5075801;28;20427;-66
2023/04/23 00:12:58;;;;;;;4.40;4.00;;;14.20;99.90;;;;;;5072729;28;20431;-67
2023/04/23 00:15:24;;;;;;;3.60;3.30;;;14.20;99.90;;;;;;5070549;28;20245;-66
2023/04/23 00:17:50;;;;;;;4.33;3.27;;;14.30;99.90;;;;;;5071146;28;20265;-66
2023/04/23 00:20:16;;;;;;;3.33;3.03;;;14.20;99.90;;;;;;5071381;28;20208;-66
2023/04/23 00:22:42;;;;;;;3.90;3.50;;;14.20;99.90;;;;;;5072763;28;20196;-66
2023/04/23 00:25:08;;;;;;;4.57;3.70;;;14.20;99.90;;;;;;5072678;28;20264;-66
2023/04/23 00:27:34;;;;;;;4.40;3.10;;;14.10;99.90;;;;;;5070364;28;20903;-66
2023/04/23 00:30:00;;;;;;;4.03;3.67;;;14.00;99.90;;;;;;5070898;28;20494;-66
2023/04/23 00:32:25;;;;;;;3.60;3.30;;;13.90;99.90;;;;;;5076613;28;20260;-66
2023/04/23 00:34:51;;;;;;;3.37;3.07;;;13.80;99.90;;;;;;5071172;28;20223;-66
2023/04/23 00:37:17;;;;;;;4.53;3.20;;;13.70;99.90;;;;;;5069013;28;20284;-66
2023/04/23 00:39:43;;;;;;;3.23;2.93;;;13.60;99.90;;;;;;5071650;28;20193;-66
2023/04/23 00:42:12;;;;;;;3.50;3.20;;;13.60;99.90;;;;;;5072593;28;20547;-66
2023/04/23 00:44:38;;;;;;;3.70;3.13;;;13.50;99.90;;;;;;5071424;28;20483;-67
2023/04/23 00:47:06;;;;;;;3.80;3.20;;;13.50;99.90;;;;;;5064831;28;20440;-66
2023/04/23 00:49:32;;;;;;;3.90;3.43;;;13.50;99.90;;;;;;5067567;28;20543;-67
2023/04/23 00:51:59;;;;;;;3.27;2.97;;;13.40;99.90;;;;;;5070206;28;20518;-66
2023/04/23 00:54:25;;;;;;;7.63;2.87;;;13.40;99.90;;;;;;5070802;28;20505;-66
2023/04/23 00:56:51;;;;;;;4.50;3.03;;;13.40;99.90;;;;;;5064125;28;20502;-66
2023/04/23 00:59:17;;;;;;;4.00;3.20;;;13.30;99.90;;;;;;5062012;28;20677;-67
2023/04/23 01:01:44;;;;;;;4.87;3.40;;;13.40;99.90;;;;;;5065645;28;20180;-66
2023/04/23 01:04:14;;;;;;;3.57;3.27;;;13.40;99.90;;;;;;5070909;28;20524;-66
2023/04/23 01:06:41;;;;;;;4.03;2.70;;;13.40;99.90;;;;;;5073832;28;20439;-66
2023/04/23 01:09:08;;;;;;;4.50;2.90;;;13.50;99.90;;;;;;5077582;28;20491;-66
2023/04/23 01:11:37;;;;;;;3.43;2.97;;;13.60;99.90;;;;;;5070361;28;21006;-66
2023/04/23 01:14:03;;;;;;;5.27;2.67;;;13.60;99.90;;;;;;5068176;28;20427;-66
2023/04/23 01:16:29;;;;;;;3.40;3.10;;;13.70;99.90;;;;;;5067404;28;20811;-67
2023/04/23 01:18:55;;;;;;;4.60;2.97;;;13.70;99.90;;;;;;5069271;28;20192;-66
2023/04/23 01:21:22;;;;;;;3.97;3.40;;;13.70;99.90;;;;;;5065317;28;20179;-66
2023/04/23 01:23:48;;;;;;;3.00;2.70;;;13.70;99.90;;;;;;5071317;28;20480;-67
2023/04/23 01:26:14;;;;;;;5.93;3.20;;;13.80;99.90;;;;;;5070732;28;20447;-66
2023/04/23 01:28:41;;;;;;;3.73;2.90;;;13.80;99.90;;;;;;5070625;28;20461;-66
2023/04/23 01:31:07;;;;;;;4.73;3.37;;;13.70;99.90;;;;;;5068320;28;20192;-66
2023/04/23 01:33:33;;;;;;;3.07;2.70;;;13.70;99.90;;;;;;5075574;28;20431;-67
2023/04/23 01:35:59;;;;;;;3.03;2.83;;;13.60;99.90;;;;;;5070383;28;20258;-67
2023/04/23 01:38:29;;;;;;;4.50;3.17;;;13.50;99.90;;;;;;5071182;28;20261;-67
2023/04/23 01:40:55;;;;;;;4.10;3.50;;;13.50;99.90;;;;;;5071106;28;20431;-67
2023/04/23 01:43:21;;;;;;;3.93;3.63;;;13.50;99.90;;;;;;5070894;28;20644;-66
2023/04/23 01:45:47;;;;;;;4.30;3.70;;;13.50;99.90;;;;;;5069640;28;20177;-67
2023/04/23 01:48:12;;;;;;;3.20;2.90;;;13.60;99.90;;;;;;5073274;28;20490;-67
2023/04/23 01:50:38;;;;;;;4.47;3.00;;;13.60;99.90;;;;;;5069759;28;20192;-66
2023/04/23 01:53:04;;;;;;;4.30;3.90;;;13.70;99.90;;;;;;5069758;28;20173;-67
2023/04/23 01:55:30;;;;;;;2.87;2.60;;;13.70;99.90;;;;;;5067736;28;21171;-67
2023/04/23 01:57:55;;;;;;;4.20;3.90;;;13.70;99.90;;;;;;5069155;28;20615;-66
2023/04/23 02:00:21;;;;;;;5.83;3.40;;;13.70;99.90;;;;;;5068226;28;20585;-66
2023/04/23 02:02:46;;;;;;;3.40;3.10;;;13.70;99.90;;;;;;5070134;28;20173;-66
2023/04/23 02:05:17;;;;;;;4.23;3.90;;;13.80;99.90;;;;;;5070767;28;20255;-66
2023/04/23 02:07:44;;;;;;;4.47;3.33;;;13.90;99.90;;;;;;5069333;28;20172;-67
2023/04/23 02:10:10;;;;;;;5.60;3.80;;;13.90;99.90;;;;;;5068058;28;20443;-67
2023/04/23 02:12:36;;;;;;;4.10;3.70;;;13.80;99.90;;;;;;5070561;28;20449;-66
2023/04/23 02:15:03;;;;;;;4.60;4.13;;;13.80;99.90;;;;;;5069994;28;20998;-66
2023/04/23 02:17:28;;;;;;;4.50;3.50;;;13.70;99.90;;;;;;5068982;28;20437;-66
2023/04/23 02:19:54;;;;;;;2.60;2.40;;;13.70;99.90;;;;;;5068611;28;20811;-66
2023/04/23 02:22:21;;;;;;;3.50;3.20;;;13.50;99.90;;;;;;5069985;28;20173;-66
2023/04/23 02:24:47;;;;;;;3.30;2.83;;;13.30;99.90;;;;;;5067026;28;20439;-67
2023/04/23 02:27:12;;;;;;;3.60;3.30;;;13.10;99.90;;;;;;5067689;28;20438;-67
2023/04/23 02:29:38;;;;;;;3.80;3.03;;;13.00;99.90;;;;;;5067224;28;20315;-66
2023/04/23 02:32:03;;;;;;;3.37;3.10;;;12.90;99.90;;;;;;5066110;28;20181;-67
2023/04/23 02:34:29;;;;;;;3.33;3.10;;;12.80;99.90;;;;;;5068796;28;20196;-67
2023/04/23 02:36:55;;;;;;;3.57;3.30;;;12.80;99.90;;;;;;5070733;28;20604;-67
2023/04/23 02:39:20;;;;;;;6.63;3.50;;;12.70;99.90;;;;;;5069573;28;20219;-67
2023/04/23 02:41:46;;;;;;;4.27;3.73;;;12.80;99.90;;;;;;5070343;28;20266;-67
2023/04/23 02:44:11;;;;;;;4.23;3.73;;;12.80;99.90;;;;;;5069675;28;20185;-67
2023/04/23 02:46:37;;;;;;;4.00;3.07;;;12.80;99.90;;;;;;5069698;28;20185;-67
2023/04/23 02:49:05;;;;;;;4.50;4.20;;;12.70;99.90;;;;;;5066513;28;20228;-67
2023/04/23 02:51:31;;;;;;;4.87;4.23;;;12.70;99.90;;;;;;5065022;28;20191;-67
2023/04/23 02:53:56;;;;;;;6.33;3.37;;;12.70;99.90;;;;;;5065523;28;20439;-67
2023/04/23 02:56:22;;;;;;;4.43;4.03;;;12.70;99.90;;;;;;5068593;28;20215;-67
2023/04/23 02:58:48;;;;;;;3.87;3.57;;;12.70;99.90;;;;;;5072744;28;20201;-67
2023/04/23 03:01:13;;;;;;;3.67;3.37;;;12.70;99.90;;;;;;5075989;28;20184;-67
2023/04/23 03:03:39;;;;;;;3.17;2.97;;;12.60;99.90;;;;;;5079683;28;20204;-67
2023/04/23 03:06:06;;;;;;;2.73;2.53;;;12.60;99.90;;;;;;5070925;28;20184;-67
2023/04/23 03:08:32;;;;;;;3.70;3.20;;;12.60;99.90;;;;;;5072613;28;20462;-68
2023/04/23 03:10:57;;;;;;;3.70;3.10;;;12.60;99.90;;;;;;5081626;28;20445;-67
2023/04/23 03:13:24;;;;;;;3.20;2.90;;;12.60;99.90;;;;;;5066239;28;20191;-67
2023/04/23 03:15:51;;;;;;;3.30;3.10;;;12.50;99.90;;;;;;5077890;28;20207;-67
2023/04/23 03:18:17;;;;;;;4.43;2.90;;;12.50;99.90;;;;;;5082108;28;20446;-67
2023/04/23 03:20:43;;;;;;;3.40;2.90;;;12.50;99.90;;;;;;5085593;28;20528;-67
2023/04/23 03:23:08;;;;;;;3.37;2.53;;;12.50;99.90;;;;;;5070167;28;20467;-68
2023/04/23 03:25:34;;;;;;;3.20;3.00;;;12.40;99.90;;;;;;5074845;28;20185;-67
2023/04/23 03:28:00;;;;;;;3.10;2.70;;;12.40;99.90;;;;;;5082233;28;20176;-68
2023/04/23 03:30:26;;;;;;;2.40;2.20;;;12.40;99.90;;;;;;5079751;28;20637;-67
2023/04/23 03:32:53;;;;;;;2.87;2.67;;;12.40;99.90;;;;;;5077379;28;20446;-67
2023/04/23 03:35:19;;;;;;;2.83;2.63;;;12.30;99.90;;;;;;5065406;28;20463;-68
2023/04/23 03:37:44;;;;;;;2.83;2.43;;;12.30;99.90;;;;;;5068939;28;20483;-67
2023/04/23 03:40:10;;;;;;;3.07;2.80;;;12.40;99.90;;;;;;5070117;28;20197;-67
2023/04/23 03:42:36;;;;;;;2.80;2.60;;;12.40;99.90;;;;;;5087792;28;20183;-67
2023/04/23 03:45:01;;;;;;;3.90;3.10;;;12.40;99.90;;;;;;5081694;28;20653;-67
2023/04/23 03:47:27;;;;;;;3.37;2.67;;;12.40;99.90;;;;;;5074575;28;20293;-67
2023/04/23 03:49:53;;;;;;;4.23;3.93;;;12.40;99.90;;;;;;5073225;28;20205;-68
2023/04/23 03:52:19;;;;;;;4.37;3.97;;;12.40;99.90;;;;;;5082156;28;20196;-68
2023/04/23 03:54:44;;;;;;;2.80;2.60;;;12.30;99.90;;;;;;5078686;28;20806;-67
2023/04/23 03:57:13;;;;;;;3.10;2.40;;;12.30;99.90;;;;;;5072194;28;20881;-67
2023/04/23 03:59:38;;;;;;;2.70;2.50;;;12.20;99.90;;;;;;5073134;28;20232;-66
2023/04/23 04:02:04;;;;;;;2.77;2.57;;;12.20;99.90;;;;;;5082016;28;20496;-66
2023/04/23 04:04:30;;;;;;;2.73;2.50;;;12.20;99.90;;;;;;5071516;28;20615;-66
2023/04/23 04:06:56;;;;;;;3.40;2.70;;;12.20;99.90;;;;;;5061318;28;20459;-67
2023/04/23 04:09:22;;;;;;;3.07;2.77;;;12.20;99.90;;;;;;5085542;28;20235;-67
2023/04/23 04:11:48;;;;;;;2.47;2.20;;;12.20;99.90;;;;;;5070761;28;20525;-67
2023/04/23 04:14:13;;;;;;;3.17;2.97;;;12.20;99.90;;;;;;5063294;28;20231;-66
2023/04/23 04:16:39;;;;;;;3.53;2.10;;;12.20;99.90;;;;;;5070702;28;20205;-67
2023/04/23 04:19:06;;;;;;;7.10;2.70;;;12.10;99.90;;;;;;5068138;28;20197;-66
2023/04/23 04:21:33;;;;;;;2.50;2.33;;;12.10;99.90;;;;;;5073924;28;20442;-67
2023/04/23 04:24:03;;;;;;;3.13;2.80;;;12.00;99.90;;;;;;5074657;28;20931;-66
2023/04/23 04:26:31;;;;;;;2.43;2.23;;;11.90;99.90;;;;;;5076524;28;20447;-67
2023/04/23 04:28:58;;;;;;;5.47;2.73;;;11.90;99.90;;;;;;5078904;28;20863;-67
2023/04/23 04:31:24;;;;;;;2.70;2.50;;;11.80;99.90;;;;;;5085443;28;20470;-67
2023/04/23 04:33:50;;;;;;;2.67;2.20;;;11.80;99.90;;;;;;5082258;28;20962;-67
2023/04/23 04:36:15;;;;;;;2.70;2.50;;;11.80;99.90;;;;;;5076751;28;20447;-67
2023/04/23 04:38:40;;;;;;;2.50;2.00;;;11.80;99.90;;;;;;5072760;28;20201;-67
2023/04/23 04:41:06;;;;;;;2.77;2.57;;;11.80;99.90;;;;;;5067185;28;20553;-67
2023/04/23 04:43:33;;;;;;;2.50;2.30;;;11.80;99.90;;;;;;5073607;28;20181;-67
2023/04/23 04:45:59;;;;;;;3.43;2.50;;;11.80;99.90;;;;;;5078339;28;20245;-67
2023/04/23 04:48:25;;;;;;;3.57;2.67;;;11.70;99.90;;;;;;5070687;28;20455;-67
2023/04/23 04:50:51;;;;;;;3.33;2.90;;;11.80;99.90;;;;;;5068329;28;20435;-67
2023/04/23 04:53:17;;;;;;;6.63;3.77;;;11.80;99.90;;;;;;5073163;28;20701;-67
2023/04/23 04:55:42;;;;;;;2.60;2.40;;;11.90;99.90;;;;;;5071213;28;20212;-67
2023/04/23 04:58:08;;;;;;;2.90;2.50;;;11.90;99.90;;;;;;5076765;28;20177;-68
2023/04/23 05:00:33;;;;;;;2.73;2.53;;;11.90;99.90;;;;;;5084592;28;20684;-67
2023/04/23 05:02:59;;;;;;;2.60;2.27;;;11.90;99.90;;;;;;5073627;28;20192;-67
2023/04/23 05:05:26;;;;;;;3.03;2.67;;;11.90;99.90;;;;;;5081288;28;20610;-66
2023/04/23 05:07:57;;;;;;;3.27;2.83;;;12.00;99.90;;;;;;5078927;28;20435;-67
2023/04/23 05:10:24;;;;;;;3.27;2.97;;;12.00;99.90;;;;;;5072066;28;20447;-67
2023/04/23 05:12:50;;;;;;;2.90;2.60;;;12.00;99.90;;;;;;5071130;28;20514;-66
2023/04/23 05:15:16;;;;;;;2.90;2.70;;;12.10;99.90;;;;;;5072916;28;20440;-67
2023/04/23 05:17:42;;;;;;;3.20;3.00;;;12.20;99.90;;;;;;5080121;28;20427;-67
2023/04/23 05:20:09;;;;;;;2.80;2.60;;;12.30;99.90;;;;;;5073687;28;20194;-67
2023/04/23 05:22:37;;;;;;;2.70;2.50;;;12.30;99.90;;;;;;5069266;28;20177;-67
2023/04/23 05:25:03;;;;;;;3.17;2.60;;;12.50;99.90;;;;;;5078106;28;20476;-67
2023/04/23 05:27:29;;;;;;;2.90;2.67;;;12.70;99.90;;;;;;5069246;28;20809;-66
2023/04/23 05:29:55;;;;;;;2.70;2.50;;;12.90;99.90;;;;;;5074789;28;20458;-68
2023/04/23 05:32:20;;;;;;;3.27;2.73;;;13.00;99.90;;;;;;5076462;28;20205;-66
2023/04/23 05:34:45;;;;;;;2.80;2.60;;;13.00;99.90;;;;;;5064676;28;20182;-64
2023/04/23 05:37:11;;;;;;;9.73;2.93;;;13.00;99.90;;;;;;5070001;28;20248;-65
2023/04/23 05:39:36;;;;;;;2.30;2.20;;;13.00;99.90;;;;;;5066368;28;20713;-65
2023/04/23 05:42:02;;;;;;;2.87;2.67;;;12.90;99.90;;;;;;5067162;28;20204;-65
2023/04/23 05:44:28;;;;;;;3.00;2.80;;;12.90;99.90;;;;;;5057358;28;20282;-66
2023/04/23 05:46:54;;;;;;;2.60;2.40;;;12.90;99.90;;;;;;5067709;28;20402;-65
2023/04/23 05:49:19;;;;;;;2.70;2.50;;;13.10;99.90;;;;;;5078357;28;20549;-64
2023/04/23 05:51:45;;;;;;;2.20;2.10;;;13.20;99.90;;;;;;5081841;28;20180;-64
2023/04/23 05:54:10;;;;;;;2.73;1.87;;;13.40;99.90;;;;;;5082780;28;20188;-64
2023/04/23 05:56:36;;;;;;;2.10;2.00;;;13.50;99.90;;;;;;5078429;28;20201;-65
2023/04/23 05:59:01;;;;;;;2.40;2.20;;;13.40;99.90;;;;;;5078849;28;20200;-64
2023/04/23 06:01:27;;;;;;;1.77;1.67;;;13.40;99.90;;;;;;5068351;28;20645;-67
2023/04/23 06:03:53;;;;;;;2.13;1.97;;;13.40;99.90;;;;;;5070922;28;20375;-67
2023/04/23 06:06:18;;;;;;;1.90;1.80;;;13.50;99.90;;;;;;5077397;28;20521;-64
2023/04/23 06:08:44;;;;;;;1.80;1.70;;;13.60;99.90;;;;;;5081649;28;20196;-65
2023/04/23 06:11:09;;;;;;;2.13;1.70;;;13.70;99.90;;;;;;5076718;28;20638;-68
2023/04/23 06:13:39;;;;;;;2.20;1.70;;;13.80;99.90;;;;;;5073433;28;20185;-67
2023/04/23 06:16:06;;;;;;;2.97;1.53;;;13.90;99.90;;;;;;5070955;28;20199;-68
2023/04/23 06:18:32;;;;;;;1.60;1.50;;;13.90;99.90;;;;;;5079215;28;20467;-67
2023/04/23 06:20:57;;;;;;;1.60;1.50;;;13.80;99.90;;;;;;5076755;28;20826;-68
2023/04/23 06:23:23;;;;;;;1.70;1.60;;;13.90;99.90;;;;;;5066666;28;20173;-67
2023/04/23 06:25:48;;;;;;;1.87;1.70;;;14.00;99.90;;;;;;5075192;28;20187;-67
2023/04/23 06:28:14;;;;;;;1.40;1.30;;;14.00;99.90;;;;;;5075050;28;20204;-68
2023/04/23 06:30:40;;;;;;;0.87;0.87;;;14.20;99.90;;;;;;5079599;28;20180;-67
2023/04/23 06:33:07;;;;;;;1.67;1.57;;;14.40;99.90;;;;;;5077557;28;20446;-67
2023/04/23 06:35:33;;;;;;;1.33;1.23;;;14.50;99.90;;;;;;5071189;28;20212;-68
2023/04/23 06:37:59;;;;;;;1.40;1.30;;;14.70;99.90;;;;;;5075235;28;20487;-67
2023/04/23 06:40:24;;;;;;;1.60;1.17;;;15.10;99.90;;;;;;5067104;28;20172;-67
2023/04/23 06:42:50;;;;;;;2.13;1.93;;;15.00;99.90;;;;;;5078989;28;20593;-68
2023/04/23 06:45:15;;;;;;;1.80;1.70;;;15.00;99.90;;;;;;5068981;28;20313;-68
2023/04/23 06:47:41;;;;;;;2.30;1.70;;;14.90;99.90;;;;;;5072147;28;20203;-67
2023/04/23 06:50:07;;;;;;;1.53;1.43;;;14.90;99.90;;;;;;5082577;28;20199;-68
2023/04/23 06:52:33;;;;;;;1.23;1.13;;;14.90;99.90;;;;;;5082951;28;20184;-68
2023/04/23 06:54:58;;;;;;;1.10;1.00;;;15.10;99.90;;;;;;5068424;28;20446;-68
2023/04/23 06:57:24;;;;;;;1.17;1.17;;;15.40;99.90;;;;;;5071163;28;20243;-68
2023/04/23 06:59:50;;;;;;;2.07;1.70;;;15.60;99.90;;;;;;5071298;28;20196;-68
2023/04/23 07:02:15;;;;;;;1.90;1.80;;;15.80;99.90;;;;;;5071981;28;20181;-68
2023/04/23 07:04:41;;;;;;;3.37;2.00;;;16.00;99.90;;;;;;5068991;28;20445;-68
2023/04/23 07:07:06;;;;;;;1.43;1.33;;;16.10;99.90;;;;;;5070736;28;20172;-68
2023/04/23 07:09:32;;;;;;;1.47;1.37;;;16.10;99.90;;;;;;5068727;28;20213;-68
2023/04/23 07:11:57;;;;;;;3.00;2.10;;;16.20;99.90;;;;;;5062537;28;20263;-65
2023/04/23 07:14:23;;;;;;;1.97;1.60;;;16.40;99.90;;;;;;5074468;28;20185;-65
2023/04/23 07:16:49;;;;;;;1.67;1.40;;;16.60;99.90;;;;;;5081300;28;20663;-65
2023/04/23 07:19:15;;;;;;;5.83;1.10;;;16.40;99.90;;;;;;5080372;28;20457;-65
2023/04/23 07:21:40;;;;;;;1.20;1.20;;;16.20;99.90;;;;;;5081491;28;20449;-65
2023/04/23 07:24:06;;;;;;;1.47;1.37;;;16.10;99.90;;;;;;5067493;28;20233;-65
2023/04/23 07:26:33;;;;;;;1.90;1.40;;;16.20;99.90;;;;;;5074065;28;20321;-65
2023/04/23 07:28:58;;;;;;;2.33;1.33;;;16.10;99.90;;;;;;5063090;28;20192;-65
2023/04/23 07:31:24;;;;;;;2.47;1.73;;;15.90;99.90;;;;;;5085382;28;20461;-65
2023/04/23 07:33:49;;;;;;;2.00;1.80;;;16.00;99.90;;;;;;5083397;28;20207;-66
2023/04/23 07:36:15;;;;;;;3.13;2.07;;;16.30;99.90;;;;;;5082835;28;20208;-65
2023/04/23 07:38:42;;;;;;;1.50;1.40;;;16.50;99.90;;;;;;5088078;28;20196;-65
2023/04/23 07:41:07;;;;;;;1.60;1.50;;;16.70;99.90;;;;;;5069718;28;20707;-65
2023/04/23 07:43:33;;;;;;;1.73;1.50;;;16.80;99.90;;;;;;5069566;28;20435;-65
2023/04/23 07:45:59;;;;;;;2.50;2.40;;;17.10;99.90;;;;;;5078777;28;20727;-65
2023/04/23 07:48:24;;;;;;;1.40;1.30;;;17.40;99.90;;;;;;5069638;28;20212;-65
2023/04/23 07:50:50;;;;;;;2.33;2.00;;;17.60;99.90;;;;;;5073266;28;20187;-65
2023/04/23 07:53:15;;;;;;;2.47;2.30;;;17.80;99.90;;;;;;5079811;28;20660;-65
2023/04/23 07:55:41;;;;;;;5.23;2.27;;;18.00;99.90;;;;;;5082091;28;20253;-66
2023/04/23 07:58:06;;;;;;;2.20;1.67;;;18.40;99.90;;;;;;5067939;28;20180;-65
2023/04/23 08:00:32;;;;;;;2.40;1.80;;;18.40;99.90;;;;;;5079005;28;20213;-65
2023/04/23 08:02:58;;;;;;;2.50;2.30;;;18.10;99.90;;;;;;5071798;28;20597;-65
2023/04/23 08:05:25;;;;;;;2.00;1.90;;;17.90;99.90;;;;;;5073863;28;21596;-65
2023/04/23 08:07:50;;;;;;;2.10;2.00;;;18.10;99.90;;;;;;5083890;28;20804;-66
2023/04/23 08:10:16;;;;;;;2.13;1.93;;;18.50;99.90;;;;;;5085700;28;20454;-65
2023/04/23 08:12:41;;;;;;;2.23;2.13;;;18.90;99.90;;;;;;5084769;28;20670;-66
2023/04/23 08:15:07;;;;;;;3.10;1.93;;;19.00;99.90;;;;;;5079391;28;20251;-65
2023/04/23 08:17:33;;;;;;;2.20;1.63;;;18.90;99.90;;;;;;5074883;28;20212;-66
2023/04/23 08:19:58;;;;;;;4.50;2.43;;;18.90;99.90;;;;;;5071281;28;20595;-65
2023/04/23 08:22:24;;;;;;;3.33;2.17;;;19.00;99.90;;;;;;5068857;28;20192;-66
2023/04/23 08:24:49;;;;;;;2.57;2.37;;;19.10;99.90;;;;;;5090533;28;20181;-66
2023/04/23 08:27:15;;;;;;;1.90;1.80;;;19.00;99.90;;;;;;5073359;28;20590;-66
2023/04/23 08:29:40;;;;;;;2.30;1.60;;;18.50;99.90;;;;;;5071866;28;20197;-67
2023/04/23 08:32:06;;;;;;;1.93;1.73;;;18.10;99.90;;;;;;5080419;28;20180;-67
2023/04/23 08:34:31;;;;;;;2.10;1.90;;;18.10;99.90;;;;;;5074491;28;20169;-66
2023/04/23 08:36:57;;;;;;;2.13;2.03;;;18.00;99.90;;;;;;5071550;28;20571;-67
2023/04/23 08:39:22;;;;;;;2.37;2.13;;;18.20;99.90;;;;;;5078341;28;20211;-66
2023/04/23 08:41:54;;;;;;;2.10;1.90;;;18.50;99.90;;;;;;5076470;28;20173;-65
2023/04/23 08:44:24;;;;;;;2.20;2.03;;;18.70;99.90;;;;;;5068355;28;20204;-65
2023/04/23 08:46:52;;;;;;;2.20;2.10;;;18.90;99.90;;;;;;5079849;28;20428;-66
2023/04/23 08:49:18;;;;;;;4.40;2.27;;;19.30;99.90;;;;;;5066592;28;20762;-65
2023/04/23 08:51:52;;;;;;;3.73;2.33;;;19.50;99.90;;;;;;5066280;28;20430;-66
2023/04/23 08:54:24;;;;;;;2.70;2.20;;;19.50;99.90;;;;;;5068741;28;20211;-66
2023/04/23 08:56:50;;;;;;;4.03;3.50;;;19.10;99.90;;;;;;5067073;28;20475;-66
2023/04/23 08:59:17;;;;;;;2.37;2.27;;;19.00;99.90;;;;;;5063744;28;20451;-66
2023/04/23 09:01:43;;;;;;;2.60;2.47;;;19.40;99.90;;;;;;5066325;28;20435;-65
2023/04/23 09:04:09;;;;;;;1.93;1.60;;;19.90;99.90;;;;;;5065066;28;20806;-68
2023/04/23 09:06:35;;;;;;;2.47;1.60;;;20.10;99.90;;;;;;5074595;28;20466;-67
2023/04/23 09:09:02;;;;;;;2.00;1.83;;;20.10;99.90;;;;;;5065864;28;20984;-67
2023/04/23 09:11:29;;;;;;;2.10;2.00;;;20.50;99.90;;;;;;5069671;28;20181;-67
2023/04/23 09:13:56;;;;;;;2.10;2.00;;;19.70;99.90;;;;;;5069235;28;20759;-67
2023/04/23 09:16:21;;;;;;;1.70;1.60;;;19.30;99.90;;;;;;5069821;28;20551;-67
2023/04/23 09:18:48;;;;;;;1.80;1.70;;;19.10;99.90;;;;;;5071890;28;21108;-67
2023/04/23 09:21:14;;;;;;;1.50;1.40;;;19.20;99.90;;;;;;5077975;28;20181;-67
2023/04/23 09:23:40;;;;;;;1.87;1.73;;;19.30;99.90;;;;;;5063261;28;20438;-67
2023/04/23 09:26:06;;;;;;;2.03;1.53;;;19.20;99.90;;;;;;5066346;28;20187;-67
2023/04/23 09:28:36;;;;;;;1.90;1.47;;;19.20;99.90;;;;;;5071853;28;20451;-67
2023/04/23 09:31:05;;;;;;;4.80;1.70;;;19.60;99.90;;;;;;5063982;28;20475;-67
2023/04/23 09:33:33;;;;;;;2.03;1.83;;;19.70;99.90;;;;;;5068653;28;20843;-67
2023/04/23 09:36:08;;;;;;;1.80;1.70;;;20.50;99.50;;;;;;5070656;28;20550;-70
2023/04/23 09:38:34;;;;;;;1.60;1.50;;;21.30;98.20;;;;;;5075030;28;20458;-70
2023/04/23 09:41:38;;;;;;;1.60;1.50;;;22.10;94.60;;;;;;5069153;28;20477;-71
2023/04/23 09:44:04;;;;;;;2.30;1.60;;;22.30;91.30;;;;;;5063889;28;20903;-68
2023/04/23 09:46:38;;;;;;;1.80;1.70;;;21.40;90.70;;;;;;5067672;28;20455;-69
2023/04/23 09:49:06;;;;;;;2.07;1.97;;;21.00;91.40;;;;;;5071347;28;20195;-70
2023/04/23 09:51:35;;;;;;;2.60;2.40;;;21.90;92.30;;;;;;5081643;28;20433;-67
2023/04/23 09:54:02;;;;;;;1.90;1.80;;;22.10;88.10;;;;;;5070042;28;20430;-67
2023/04/23 09:56:30;;;;;;;2.67;1.40;;;22.10;87.20;;;;;;5077291;28;20489;-66
2023/04/23 09:58:55;;;;;;;1.47;1.37;;;22.50;84.80;;;;;;5073610;28;20483;-65
2023/04/23 10:01:28;;;;;;;1.83;1.70;;;22.90;81.10;;;;;;5064190;28;20481;-66
2023/04/23 10:03:55;;;;;;;1.70;1.60;;;22.70;80.20;;;;;;5066725;28;20181;-66
2023/04/23 10:06:27;;;;;;;1.63;1.53;;;23.20;76.70;;;;;;5073403;28;20488;-66
2023/04/23 10:08:56;;;;;;;2.20;2.10;;;23.00;74.70;;;;;;5083996;28;20459;-66
2023/04/23 10:11:23;;;;;;;1.43;1.33;;;23.40;76.50;;;;;;5086504;28;20514;-66
2023/04/23 10:13:50;;;;;;;2.03;1.33;;;23.50;71.60;;;;;;5081685;28;20461;-66
2023/04/23 10:16:17;;;;;;;4.53;4.13;;;22.80;72.30;;;;;;5069718;28;20473;-65
2023/04/23 10:18:43;;;;;;;1.97;1.87;;;22.70;71.20;;;;;;5074824;28;20581;-65
2023/04/23 10:21:11;;;;;;;1.83;1.53;;;23.40;71.20;;;;;;5064498;28;20439;-66
2023/04/23 10:23:39;;;;;;;1.60;1.50;;;23.50;70.90;;;;;;5089353;28;20523;-66
2023/04/23 10:26:05;;;;;;;1.73;1.63;;;22.90;71.90;;;;;;5081279;28;20836;-65
2023/04/23 10:28:33;;;;;;;3.53;1.50;;;22.70;71.70;;;;;;5072657;28;20467;-66
2023/04/23 10:30:59;;;;;;;2.07;1.80;;;23.70;70.70;;;;;;5077816;28;20453;-66
2023/04/23 10:33:27;;;;;;;1.33;1.27;;;23.50;69.80;;;;;;5085526;28;20438;-66
2023/04/23 10:35:55;;;;;;;1.50;1.40;;;22.70;70.20;;;;;;5073745;28;20558;-66
2023/04/23 10:38:22;;;;;;;2.27;1.60;;;22.70;73.70;;;;;;5072411;28;20993;-65
2023/04/23 10:40:50;;;;;;;2.60;1.60;;;22.60;73.20;;;;;;5086102;28;20438;-67
2023/04/23 10:43:17;;;;;;;1.70;1.60;;;22.30;73.80;;;;;;5068013;28;20504;-69
2023/04/23 10:45:43;;;;;;;1.73;1.63;;;23.00;75.20;;;;;;5063994;28;20488;-69
2023/04/23 10:48:09;;;;;;;1.73;1.53;;;24.60;71.50;;;;;;5069049;28;20982;-70
2023/04/23 10:50:35;;;;;;;1.60;1.50;;;24.90;67.90;;;;;;5075174;28;20189;-69
2023/04/23 10:53:02;;;;;;;1.80;1.70;;;24.70;69.20;;;;;;5064869;28;20458;-70
2023/04/23 10:55:30;;;;;;;2.37;2.17;;;23.30;68.40;;;;;;5068452;28;20504;-67
2023/04/23 10:58:00;;;;;;;1.87;1.77;;;22.20;71.60;;;;;;5069942;28;21072;-70
2023/04/23 11:00:26;;;;;;;2.03;1.60;;;21.80;75.40;;;;;;5073865;28;20792;-71
2023/04/23 11:02:52;;;;;;;1.67;1.57;;;21.10;76.90;;;;;;5081591;28;20439;-70
2023/04/23 11:05:18;;;;;;;1.70;1.60;;;21.10;77.20;;;;;;5077925;28;20448;-71
2023/04/23 11:08:03;;;;;;;2.53;1.73;;;21.40;77.00;;;;;;5062680;28;20795;-68
2023/04/23 11:10:30;;;;;;;1.60;1.50;;;21.90;77.30;;;;;;5077429;28;20175;-67
2023/04/23 11:12:56;;;;;;;2.70;1.90;;;22.40;76.00;;;;;;5089453;28;20452;-68
2023/04/23 11:15:22;;;;;;;2.00;1.60;;;22.20;75.70;;;;;;5081519;28;21174;-67
2023/04/23 11:17:50;;;;;;;3.90;1.50;;;22.60;74.20;;;;;;5079873;28;20183;-64
2023/04/23 11:20:20;;;;;;;1.43;1.33;;;23.30;71.10;;;;;;5081057;28;20443;-65
2023/04/23 11:22:48;;;;;;;2.33;1.50;;;23.00;70.30;;;;;;5066292;28;20432;-66
2023/04/23 11:25:14;;;;;;;1.87;1.57;;;24.10;68.40;;;;;;5072748;28;20486;-66
2023/04/23 11:27:42;;;;;;;2.90;1.60;;;24.30;67.00;;;;;;5073065;28;20514;-66
2023/04/23 11:30:13;;;;;;;1.47;1.20;;;23.70;66.60;;;;;;5066382;28;20458;-67
2023/04/23 11:32:41;;;;;;;1.50;1.17;;;23.70;66.60;;;;;;5064033;28;20448;-65
2023/04/23 11:35:08;;;;;;;2.70;1.40;;;23.20;66.60;;;;;;5081985;28;20800;-65
2023/04/23 11:37:40;;;;;;;1.63;1.53;;;22.90;69.20;;;;;;5068179;28;20470;-66
2023/04/23 11:40:12;;;;;;;3.17;1.33;;;22.60;70.00;;;;;;5069247;28;20452;-65
2023/04/23 11:42:46;;;;;;;1.83;1.30;;;22.50;70.80;;;;;;5079542;28;20801;-66
2023/04/23 11:45:19;;;;;;;2.70;2.50;;;22.90;67.50;;;;;;5088363;28;20506;-66
2023/04/23 11:47:46;;;;;;;2.07;1.60;;;24.20;66.70;;;;;;5078041;28;20434;-66
2023/04/23 11:50:19;;;;;;;1.77;1.57;;;24.80;65.00;;;;;;5077463;28;20461;-67
2023/04/23 11:52:45;;;;;;;1.40;1.30;;;25.30;62.30;;;;;;5069299;28;20516;-66
2023/04/23 11:55:11;;;;;;;1.90;1.53;;;24.50;62.50;;;;;;5071998;28;20866;-65
2023/04/23 11:57:41;;;;;;;2.17;1.97;;;23.10;65.10;;;;;;5070499;28;20558;-66
2023/04/23 12:00:20;;;;;;;1.37;1.33;;;22.90;68.00;;;;;;5077067;28;20850;-66
2023/04/23 12:02:53;;;;;;;1.13;1.10;;;23.50;67.80;;;;;;5079990;28;20430;-65
2023/04/23 12:05:27;;;;;;;1.40;1.30;;;25.10;63.70;;;;;;5086122;28;20422;-67
2023/04/23 12:07:53;;;;;;;1.70;1.10;;;27.40;59.80;;;;;;5074867;28;20431;-66
2023/04/23 12:10:20;;;;;;;1.47;1.37;;;28.50;56.10;;;;;;5065609;28;20435;-67
2023/04/23 12:12:51;;;;;;;1.10;1.10;;;27.00;56.40;;;;;;5075165;28;20469;-65
2023/04/23 12:15:16;;;;;;;1.33;1.23;;;25.40;58.10;;;;;;5081129;28;20793;-66
2023/04/23 12:17:46;;;;;;;1.50;1.40;;;23.50;60.50;;;;;;5080442;28;20461;-65
2023/04/23 12:20:18;;;;;;;1.27;1.17;;;21.80;64.80;;;;;;5073857;28;20283;-67
2023/04/23 12:22:44;;;;;;;1.20;1.10;;;20.60;70.00;;;;;;5080550;28;20467;-66
2023/04/23 12:25:09;;;;;;;1.70;1.60;;;20.20;73.50;;;;;;5084437;28;20676;-65
2023/04/23 12:27:44;;;;;;;2.97;1.40;;;20.90;74.90;;;;;;5078118;28;20188;-67
2023/04/23 12:30:10;;;;;;;1.83;1.53;;;21.00;72.90;;;;;;5069856;28;20200;-67
2023/04/23 12:32:36;;;;;;;1.20;1.10;;;21.20;73.30;;;;;;5071065;28;20470;-68
2023/04/23 12:35:05;;;;;;;1.80;1.70;;;22.70;71.30;;;;;;5067403;28;20438;-67
2023/04/23 12:37:35;;;;;;;2.57;1.80;;;24.10;68.80;;;;;;5067309;28;20505;-68
2023/04/23 12:40:01;;;;;;;1.77;1.67;;;25.20;62.10;;;;;;5067864;28;20474;-68
2023/04/23 12:42:27;;;;;;;1.53;1.43;;;26.40;58.30;;;;;;5071360;28;20970;-68
2023/04/23 12:44:55;;;;;;;1.40;1.30;;;27.70;56.50;;;;;;5075437;28;20216;-67